Aguila, Arizona
Current Conditions -  °F | °C
As of 6:35 AM on Monday 24 Nov 2014 (Local Time) from KBXK Reporting Station
Clear Clear  
Wind Chill: 42°   Ceiling: Unl
Heat Index: 46°   Visibility: 10mi
Dew Point:   Wind: 8mph
Humidity: 14%   Direction: 10°N
Pressure: 30.2"   Gusts: NA
Location:  33.94°N, 113.18°W
Report Text: KBXK 241335Z AUTO 01007KT 10SM CLR 08/M18 A3020 RMK AO1
Loading
Personal Weather Stations






























Interactive Weather Map New forecast layout! Learn more

10-Day Weather Forecast

Advertisements
Track Severe Weather on mobile